Time;durP1;ratioP1;P1;durP2;ratioP2;P2;SDS_P1;SDS_P2;PMS_P1;PMS_P2;Temp;Humidity;BMP_temperature;BMP_pressure;BME280_temperature;BME280_humidity;BME280_pressure;Samples;Min_cycle;Max_cycle;Signal;HPM_P1;HPM_P2
2021/10/12 07:01:50;;;;;;;0.30;0.25;;;10.30;99.90;;;;;;6211828;22;20072;31
2021/10/12 08:08:10;;;;;;;0.00;0.00;;;10.80;99.90;;;;;;6323637;22;20019;-96
2021/10/12 08:10:39;;;;;;;0.00;0.00;;;10.80;99.90;;;;;;6295373;22;20016;-96
2021/10/12 08:13:15;;;;;;;0.00;0.00;;;10.90;99.90;;;;;;6271054;22;20011;-96
2021/10/12 08:15:52;;;;;;;0.00;0.00;;;10.80;99.90;;;;;;6273335;22;20042;-96
2021/10/12 08:18:20;;;;;;;0.00;0.00;;;10.80;99.90;;;;;;6293973;22;20015;-94
2021/10/12 08:20:48;;;;;;;0.00;0.00;;;10.90;99.90;;;;;;6295767;22;20015;-96
2021/10/12 08:23:15;;;;;;;0.00;0.00;;;10.50;99.90;;;;;;6298938;22;20047;-95
2021/10/12 08:25:42;;;;;;;0.00;0.00;;;11.00;99.90;;;;;;6296515;22;20098;-96
2021/10/12 08:28:09;;;;;;;0.00;0.00;;;11.10;99.90;;;;;;6298139;22;20332;-96
2021/10/12 09:23:40;;;;;;;0.00;0.00;;;12.30;99.90;;;;;;6292418;22;20103;-79
2021/10/12 09:26:21;;;;;;;0.00;0.00;;;12.30;99.90;;;;;;6291498;22;20016;-81
2021/10/12 09:28:49;;;;;;;0.00;0.00;;;12.30;99.90;;;;;;6290914;22;20008;-81
2021/10/12 09:31:15;;;;;;;0.00;0.00;;;12.20;99.90;;;;;;6317009;22;20054;-82
2021/10/12 09:33:49;;;;;;;0.00;0.00;;;12.10;99.90;;;;;;6266234;22;20012;-81
2021/10/12 09:36:41;;;;;;;0.00;0.00;;;12.10;99.90;;;;;;6292890;22;20009;-81
2021/10/12 09:39:14;;;;;;;0.00;0.00;;;12.00;99.90;;;;;;6293871;22;20325;-80
2021/10/12 09:41:55;;;;;;;0.00;0.00;;;12.00;99.90;;;;;;6318779;22;20444;-81
2021/10/12 09:44:22;;;;;;;0.00;0.00;;;12.00;99.90;;;;;;6293875;22;20510;-80
2021/10/12 09:46:51;;;;;;;0.00;0.00;;;12.10;99.90;;;;;;6268544;22;20030;-81
2021/10/12 09:49:20;;;;;;;0.00;0.00;;;12.20;99.90;;;;;;6319005;22;20011;-81
2021/10/12 09:52:15;;;;;;;0.00;0.00;;;12.20;99.90;;;;;;6267787;22;20018;-79
2021/10/12 09:54:49;;;;;;;0.00;0.00;;;12.30;99.90;;;;;;6293021;22;20462;-78
2021/10/12 09:57:17;;;;;;;0.00;0.00;;;12.40;99.90;;;;;;6294037;22;20444;-78
2021/10/12 09:59:44;;;;;;;0.00;0.00;;;12.50;99.90;;;;;;6322847;22;20094;-78
2021/10/12 10:02:22;;;;;;;0.00;0.00;;;12.50;99.90;;;;;;6293364;22;20039;-78
2021/10/12 10:04:53;;;;;;;0.00;0.00;;;12.50;99.90;;;;;;6292813;22;20015;-78
2021/10/12 10:07:23;;;;;;;0.00;0.00;;;12.50;99.90;;;;;;6292745;22;20073;-78
2021/10/12 10:09:54;;;;;;;0.00;0.00;;;12.50;99.90;;;;;;6292830;22;20023;-79
2021/10/12 10:12:21;;;;;;;0.00;0.00;;;12.50;99.90;;;;;;6318678;22;20364;-80
2021/10/12 10:14:47;;;;;;;0.00;0.00;;;12.50;99.90;;;;;;6267578;22;20047;-79
2021/10/12 10:17:15;;;;;;;0.00;0.00;;;12.60;99.90;;;;;;6293198;22;20102;-79
2021/10/12 10:19:46;;;;;;;0.00;0.00;;;12.60;99.90;;;;;;6292698;22;20022;-80
2021/10/12 10:22:37;;;;;;;0.00;0.00;;;12.70;99.90;;;;;;6293485;22;20012;-80
2021/10/12 10:25:27;;;;;;;0.00;0.00;;;12.70;99.90;;;;;;6292240;22;20098;-81
2021/10/12 10:27:56;;;;;;;0.00;0.00;;;12.90;99.90;;;;;;6292579;22;20506;-81
2021/10/12 10:30:29;;;;;;;0.00;0.00;;;12.90;99.90;;;;;;6293547;22;20015;-80
2021/10/12 10:33:01;;;;;;;0.00;0.00;;;12.90;99.90;;;;;;6292588;22;20067;-79
2021/10/12 10:35:47;;;;;;;0.00;0.00;;;13.00;99.90;;;;;;6292770;22;20012;-79
2021/10/12 10:38:19;;;;;;;0.00;0.00;;;13.20;99.90;;;;;;6267934;22;20085;-79
2021/10/12 10:41:14;;;;;;;0.00;0.00;;;13.20;99.90;;;;;;6318288;22;20019;-79
2021/10/12 10:43:49;;;;;;;0.00;0.00;;;13.20;99.90;;;;;;6283260;22;20862;-81
2021/10/12 10:46:31;;;;;;;;;;;13.20;99.90;;;;;;6293106;22;20011;-80
2021/10/12 10:49:16;;;;;;;0.00;0.00;;;13.20;99.90;;;;;;6292554;22;19915;-80
2021/10/12 10:51:58;;;;;;;0.00;0.00;;;13.00;99.90;;;;;;6291978;22;20012;-79
2021/10/12 10:54:43;;;;;;;0.00;0.00;;;13.00;99.90;;;;;;6292325;22;20012;-80
2021/10/12 10:57:16;;;;;;;0.00;0.00;;;12.90;99.90;;;;;;6317409;22;20023;-79
2021/10/12 10:59:43;;;;;;;0.00;0.00;;;12.70;99.90;;;;;;6292580;22;20444;-79
2021/10/12 11:02:33;;;;;;;0.00;0.00;;;12.70;99.90;;;;;;6317967;22;20023;-79
2021/10/12 11:05:00;;;;;;;0.00;0.00;;;12.70;99.90;;;;;;6292969;22;20026;-79
2021/10/12 11:07:29;;;;;;;0.08;0.08;;;12.70;99.90;;;;;;6292802;22;20012;-78
2021/10/12 11:09:57;;;;;;;0.00;0.00;;;12.80;99.90;;;;;;6291998;22;20016;-78
2021/10/12 11:12:26;;;;;;;0.00;0.00;;;12.90;99.90;;;;;;6292207;22;20007;-76
2021/10/12 11:15:03;;;;;;;0.00;0.00;;;12.90;99.90;;;;;;6317470;22;20012;-79
2021/10/12 11:17:30;;;;;;;0.00;0.00;;;12.80;99.90;;;;;;6292932;22;20004;-79
2021/10/12 11:19:59;;;;;;;0.00;0.00;;;12.70;99.90;;;;;;6292508;22;20023;-79
2021/10/12 11:22:27;;;;;;;0.00;0.00;;;12.70;99.90;;;;;;6292365;22;20016;-79
2021/10/12 11:24:55;;;;;;;0.00;0.00;;;12.80;99.90;;;;;;6291749;22;20020;-79
2021/10/12 11:27:22;;;;;;;0.00;0.00;;;12.80;99.90;;;;;;6292276;22;20020;-79
2021/10/12 11:30:12;;;;;;;0.00;0.00;;;12.80;99.90;;;;;;6292046;22;20023;-79
2021/10/12 11:32:39;;;;;;;0.00;0.00;;;12.80;99.90;;;;;;6292352;22;20018;-79
2021/10/12 11:35:11;;;;;;;0.00;0.00;;;12.90;99.90;;;;;;6266979;22;20058;-78
2021/10/12 11:37:54;;;;;;;0.00;0.00;;;12.90;99.90;;;;;;6292180;22;20087;-79
2021/10/12 11:40:26;;;;;;;0.00;0.00;;;12.90;99.90;;;;;;6292149;22;20066;-78
2021/10/12 11:42:56;;;;;;;0.00;0.00;;;12.90;99.90;;;;;;6291602;22;20014;-78
2021/10/12 11:45:22;;;;;;;0.00;0.00;;;12.80;99.90;;;;;;6292252;22;20007;-78
2021/10/12 11:47:49;;;;;;;0.05;0.05;;;12.70;99.90;;;;;;6292125;22;20143;-78
2021/10/12 11:50:16;;;;;;;0.00;0.00;;;12.60;99.90;;;;;;6266618;22;20012;-80
2021/10/12 11:53:01;;;;;;;0.00;0.00;;;12.70;99.90;;;;;;6317719;22;20011;-80
2021/10/12 11:55:29;;;;;;;0.00;0.00;;;12.80;99.90;;;;;;6267145;22;20007;-80
2021/10/12 11:58:09;;;;;;;0.00;0.00;;;12.80;99.90;;;;;;6266401;22;20011;-81
2021/10/12 12:00:38;;;;;;;0.03;0.03;;;12.90;99.90;;;;;;6292092;22;20015;-80
2021/10/12 12:03:19;;;;;;;0.00;0.00;;;13.00;99.90;;;;;;6291461;22;20086;-78
2021/10/12 12:05:49;;;;;;;0.00;0.00;;;13.10;99.90;;;;;;6266916;22;20049;-79
2021/10/12 12:08:16;;;;;;;0.00;0.00;;;13.10;99.90;;;;;;6316830;22;20332;-78
2021/10/12 12:10:43;;;;;;;0.10;0.10;;;13.10;99.90;;;;;;6266442;22;20011;-78
2021/10/12 12:13:10;;;;;;;0.00;0.00;;;13.20;99.90;;;;;;6291086;22;20016;-79
2021/10/12 12:15:39;;;;;;;0.00;0.00;;;13.10;99.90;;;;;;6266555;22;20015;-80
2021/10/12 12:18:17;;;;;;;0.00;0.00;;;13.10;99.90;;;;;;6290808;22;20022;-80
2021/10/12 12:20:58;;;;;;;0.03;0.03;;;13.00;99.90;;;;;;6291508;22;20019;-80
2021/10/12 12:23:33;;;;;;;0.00;0.00;;;12.80;99.90;;;;;;6291466;22;20012;-80
2021/10/12 12:26:02;;;;;;;0.00;0.00;;;12.80;99.90;;;;;;6291255;22;20026;-80
2021/10/12 12:28:29;;;;;;;0.00;0.00;;;12.80;99.90;;;;;;6291599;22;20340;-80
2021/10/12 12:30:56;;;;;;;0.10;0.10;;;12.70;99.90;;;;;;6291613;22;20008;-79
2021/10/12 12:33:23;;;;;;;0.00;0.00;;;12.50;99.90;;;;;;6291702;22;20011;-80
2021/10/12 12:35:52;;;;;;;0.00;0.00;;;12.40;99.90;;;;;;6266271;22;20046;-79
2021/10/12 12:38:31;;;;;;;0.00;0.00;;;12.40;99.90;;;;;;6291103;22;20419;-80
2021/10/12 12:40:58;;;;;;;0.00;0.00;;;12.40;99.90;;;;;;6290975;22;20058;-79
2021/10/12 12:43:28;;;;;;;0.00;0.00;;;12.50;99.90;;;;;;6317455;22;20097;-80
2021/10/12 12:46:14;;;;;;;1.45;0.70;;;12.60;99.90;;;;;;6291646;22;20011;-80
2021/10/12 12:48:43;;;;;;;0.00;0.00;;;12.70;99.90;;;;;;6292251;22;20008;-80
2021/10/12 12:51:10;;;;;;;0.00;0.00;;;12.70;99.90;;;;;;6266160;22;20011;-80
2021/10/12 12:53:48;;;;;;;0.00;0.00;;;12.70;99.90;;;;;;6291703;22;20019;-80
2021/10/12 12:56:17;;;;;;;0.00;0.00;;;12.80;99.90;;;;;;6316562;22;20016;-81
2021/10/12 12:58:46;;;;;;;0.00;0.00;;;12.90;99.90;;;;;;6291496;22;20051;-80
2021/10/12 13:01:17;;;;;;;0.00;0.00;;;12.90;99.90;;;;;;6291266;22;20098;-80
2021/10/12 13:03:54;;;;;;;0.00;0.00;;;13.00;99.90;;;;;;6293199;22;20112;-77
2021/10/12 13:06:21;;;;;;;0.00;0.00;;;13.00;99.90;;;;;;6316656;22;20070;-77
2021/10/12 13:08:49;;;;;;;0.00;0.00;;;13.00;99.90;;;;;;6291682;22;20011;-77
2021/10/12 13:11:23;;;;;;;0.00;0.00;;;13.00;99.90;;;;;;6292769;22;20432;-77
2021/10/12 13:13:50;;;;;;;0.00;0.00;;;13.00;99.90;;;;;;6268661;22;20069;-77
2021/10/12 13:16:17;;;;;;;0.00;0.00;;;13.00;99.90;;;;;;6293086;22;20313;-77
2021/10/12 13:18:44;;;;;;;0.00;0.00;;;13.00;99.90;;;;;;6319173;22;20057;-77
2021/10/12 13:21:10;;;;;;;0.00;0.00;;;13.00;99.90;;;;;;6267935;22;20500;-77
2021/10/12 13:23:37;;;;;;;0.00;0.00;;;12.90;99.90;;;;;;6268066;22;20016;-77
2021/10/12 13:26:05;;;;;;;0.00;0.00;;;12.90;99.90;;;;;;6267734;22;20016;-77
2021/10/12 13:28:32;;;;;;;0.00;0.00;;;12.90;99.90;;;;;;6318486;22;20397;-77
2021/10/12 13:30:58;;;;;;;0.00;0.00;;;12.90;99.90;;;;;;6293552;22;20039;-77
2021/10/12 13:33:25;;;;;;;0.00;0.00;;;12.90;99.90;;;;;;6267493;22;20086;-77
2021/10/12 13:35:52;;;;;;;0.00;0.00;;;12.80;99.90;;;;;;6268088;22;20012;-77
2021/10/12 13:38:19;;;;;;;0.00;0.00;;;12.70;99.90;;;;;;6292923;22;20317;-77
2021/10/12 13:40:46;;;;;;;0.03;0.03;;;12.60;99.90;;;;;;6292930;22;20094;-77
2021/10/12 13:43:13;;;;;;;0.00;0.00;;;12.50;99.90;;;;;;6292507;22;20043;-77
2021/10/12 13:45:40;;;;;;;0.00;0.00;;;12.40;99.90;;;;;;6292999;22;20053;-76
2021/10/12 13:48:07;;;;;;;0.10;0.10;;;12.30;99.90;;;;;;6267532;22;20065;-79
2021/10/12 13:50:34;;;;;;;0.00;0.00;;;12.20;99.90;;;;;;6267986;22;20099;-79
2021/10/12 13:53:03;;;;;;;0.00;0.00;;;12.20;99.90;;;;;;6268076;22;20008;-80
2021/10/12 13:55:30;;;;;;;0.00;0.00;;;12.10;99.90;;;;;;6267798;22;20443;-79
2021/10/12 13:57:59;;;;;;;0.08;0.08;;;12.10;99.90;;;;;;6292826;22;20012;-79
2021/10/12 14:00:26;;;;;;;0.00;0.00;;;12.10;99.90;;;;;;6267723;22;20016;-79
2021/10/12 14:02:53;;;;;;;0.00;0.00;;;12.10;99.90;;;;;;6268054;22;20011;-79
2021/10/12 14:05:20;;;;;;;0.00;0.00;;;12.00;99.90;;;;;;6292837;22;20191;-78
2021/10/12 14:07:47;;;;;;;0.00;0.00;;;12.00;99.90;;;;;;6318506;22;20367;-79
2021/10/12 14:10:14;;;;;;;0.00;0.00;;;12.10;99.90;;;;;;6266821;22;20095;-79
2021/10/12 14:12:41;;;;;;;0.00;0.00;;;12.10;99.90;;;;;;6267402;22;20031;-79
2021/10/12 14:15:09;;;;;;;0.00;0.00;;;12.20;99.90;;;;;;6267197;22;20016;-79
2021/10/12 14:17:36;;;;;;;0.00;0.00;;;12.20;99.90;;;;;;6293251;22;20018;-79
2021/10/12 14:20:03;;;;;;;0.00;0.00;;;12.20;99.90;;;;;;6267757;22;20711;-79
2021/10/12 14:22:32;;;;;;;0.00;0.00;;;12.20;99.90;;;;;;6266489;22;20016;-79
2021/10/12 14:24:59;;;;;;;0.00;0.00;;;12.30;99.90;;;;;;6267747;22;20027;-79
2021/10/12 14:27:26;;;;;;;0.00;0.00;;;12.30;99.90;;;;;;6267307;22;20441;-79
2021/10/12 14:29:59;;;;;;;0.00;0.00;;;12.30;99.90;;;;;;6293104;22;20095;-79
2021/10/12 14:32:27;;;;;;;0.00;0.00;;;12.30;99.90;;;;;;6268851;22;20509;-79
2021/10/12 14:34:54;;;;;;;0.00;0.00;;;12.30;99.90;;;;;;6318233;22;20004;-79
2021/10/12 14:37:20;;;;;;;0.00;0.00;;;12.30;99.90;;;;;;6266998;22;20066;-79
2021/10/12 14:39:47;;;;;;;0.00;0.00;;;12.30;99.90;;;;;;6267321;22;20022;-79
2021/10/12 14:42:14;;;;;;;0.00;0.00;;;12.30;99.90;;;;;;6317904;22;20069;-79
2021/10/12 14:44:41;;;;;;;0.00;0.00;;;12.30;99.90;;;;;;6267281;22;20023;-79
2021/10/12 14:47:07;;;;;;;0.00;0.00;;;12.30;99.90;;;;;;6268058;22;20034;-78
2021/10/12 14:49:34;;;;;;;0.00;0.00;;;12.30;99.90;;;;;;6266828;22;20043;-79
2021/10/12 14:52:01;;;;;;;0.00;0.00;;;12.30;99.90;;;;;;6292772;22;20023;-78
2021/10/12 14:54:28;;;;;;;0.05;0.05;;;12.20;99.90;;;;;;6266801;22;20065;-78
2021/10/12 14:56:55;;;;;;;0.00;0.00;;;12.20;99.90;;;;;;6266514;22;20436;-78
2021/10/12 14:59:21;;;;;;;0.00;0.00;;;12.10;99.90;;;;;;6266220;22;20012;-78
2021/10/12 15:01:48;;;;;;;0.00;0.00;;;12.00;99.90;;;;;;6292422;22;20071;-79
2021/10/12 15:04:16;;;;;;;0.00;0.00;;;11.90;99.90;;;;;;6267175;22;20067;-80
2021/10/12 15:06:43;;;;;;;0.00;0.00;;;11.90;99.90;;;;;;6267336;22;20011;-80
2021/10/12 15:09:10;;;;;;;0.00;0.00;;;11.90;99.90;;;;;;6272748;22;20026;-80
2021/10/12 15:11:38;;;;;;;0.00;0.00;;;11.90;99.90;;;;;;6266739;22;20019;-81
2021/10/12 15:14:04;;;;;;;0.00;0.00;;;11.80;99.90;;;;;;6267452;22;20012;-80
2021/10/12 15:16:31;;;;;;;0.00;0.00;;;11.80;99.90;;;;;;6292266;22;20014;-80
2021/10/12 15:18:58;;;;;;;0.00;0.00;;;11.80;99.90;;;;;;6267141;22;20090;-81
2021/10/12 15:21:25;;;;;;;0.10;0.10;;;11.70;99.90;;;;;;6291986;22;20033;-80
2021/10/12 15:23:51;;;;;;;0.00;0.00;;;11.80;99.90;;;;;;6291944;22;20020;-80
2021/10/12 15:26:18;;;;;;;0.00;0.00;;;11.80;99.90;;;;;;6266723;22;20024;-81
2021/10/12 15:28:45;;;;;;;0.08;0.08;;;11.60;99.90;;;;;;6266739;22;20344;-79
2021/10/12 15:31:15;;;;;;;0.00;0.00;;;11.40;99.90;;;;;;6266433;22;20011;-80
2021/10/12 15:33:41;;;;;;;0.00;0.00;;;11.20;99.90;;;;;;6291177;22;20012;-79
2021/10/12 15:36:08;;;;;;;0.00;0.00;;;11.00;99.90;;;;;;6291910;22;20019;-80
2021/10/12 15:38:35;;;;;;;0.00;0.00;;;10.80;99.90;;;;;;6266463;22;20018;-79
2021/10/12 15:41:02;;;;;;;0.00;0.00;;;10.70;99.90;;;;;;6266689;22;20012;-79
2021/10/12 15:43:29;;;;;;;0.03;0.03;;;10.50;99.90;;;;;;6291631;22;20629;-80
2021/10/12 15:45:56;;;;;;;0.00;0.00;;;10.50;99.90;;;;;;6266689;22;20011;-79
2021/10/12 15:48:24;;;;;;;0.00;0.00;;;10.40;99.90;;;;;;6291469;22;20011;-80
2021/10/12 15:50:50;;;;;;;0.00;0.00;;;10.30;99.90;;;;;;6266788;22;20321;-80
2021/10/12 15:53:17;;;;;;;0.05;0.05;;;10.20;99.90;;;;;;6266574;22;20087;-79
2021/10/12 15:55:44;;;;;;;0.00;0.00;;;10.10;99.90;;;;;;6317084;22;20085;-80
2021/10/12 15:58:10;;;;;;;0.00;0.00;;;10.10;99.90;;;;;;6291828;22;20091;-80
2021/10/12 16:00:37;;;;;;;0.00;0.00;;;10.10;99.90;;;;;;6291428;22;20007;-80
2021/10/12 16:03:05;;;;;;;0.25;0.10;;;10.10;99.90;;;;;;6291858;22;20424;-80
2021/10/12 16:05:32;;;;;;;0.00;0.00;;;10.10;99.90;;;;;;6291791;22;20027;-79
2021/10/12 16:07:59;;;;;;;0.00;0.00;;;10.10;99.90;;;;;;6266350;22;20008;-80
2021/10/12 16:10:26;;;;;;;0.00;0.00;;;10.10;99.90;;;;;;6265811;22;20016;-79
2021/10/12 16:12:52;;;;;;;0.00;0.00;;;10.10;99.90;;;;;;6266419;22;20012;-80
2021/10/12 16:20:53;;;;;;;0.00;0.00;;;10.10;99.90;;;;;;6316227;22;20344;-80
2021/10/12 16:23:20;;;;;;;0.00;0.00;;;10.20;99.90;;;;;;6267142;22;20104;-80
2021/10/12 16:25:46;;;;;;;0.08;0.08;;;10.10;99.90;;;;;;6265862;22;20012;-79
2021/10/12 16:28:13;;;;;;;0.00;0.00;;;10.00;99.90;;;;;;6291512;22;20011;-80
2021/10/12 16:30:40;;;;;;;0.00;0.00;;;10.00;99.90;;;;;;6291117;22;20050;-80
2021/10/12 16:33:07;;;;;;;0.00;0.00;;;10.00;99.90;;;;;;6317262;22;20015;-79
2021/10/12 16:35:36;;;;;;;0.00;0.00;;;10.00;99.90;;;;;;6291002;22;20050;-79
2021/10/12 16:38:04;;;;;;;0.00;0.00;;;10.00;99.90;;;;;;6266279;22;20090;-81
2021/10/12 16:40:33;;;;;;;0.10;0.10;;;9.90;99.90;;;;;;6265431;22;20436;-79
2021/10/12 16:43:00;;;;;;;0.00;0.00;;;9.90;99.90;;;;;;6266093;22;20015;-79
2021/10/12 16:45:26;;;;;;;0.00;0.00;;;9.80;99.90;;;;;;6266146;22;20053;-79
2021/10/12 16:47:53;;;;;;;0.00;0.00;;;9.80;99.90;;;;;;6292965;22;20015;-79
2021/10/12 16:50:20;;;;;;;0.00;0.00;;;9.70;99.90;;;;;;6267163;22;20025;-79
2021/10/12 16:52:47;;;;;;;0.10;0.10;;;9.60;99.90;;;;;;6267191;22;20078;-79
2021/10/12 16:55:13;;;;;;;0.10;0.10;;;9.60;99.90;;;;;;6267889;22;20031;-79
2021/10/12 16:57:40;;;;;;;0.05;0.05;;;9.60;99.90;;;;;;6293005;22;20016;-79
2021/10/12 17:00:07;;;;;;;0.10;0.10;;;9.60;99.90;;;;;;6267271;22;20026;-79
2021/10/12 17:02:35;;;;;;;0.00;0.00;;;9.50;99.90;;;;;;6293135;22;20162;-80
2021/10/12 17:05:05;;;;;;;0.00;0.00;;;9.50;99.90;;;;;;6293715;22;20071;-80
2021/10/12 17:07:33;;;;;;;0.00;0.00;;;9.50;99.90;;;;;;6293834;22;20048;-79
2021/10/12 17:09:59;;;;;;;0.00;0.00;;;9.50;99.90;;;;;;6293291;22;20511;-79
2021/10/12 17:12:28;;;;;;;0.00;0.00;;;9.60;99.90;;;;;;6293628;22;20077;-79
2021/10/12 17:14:55;;;;;;;0.00;0.00;;;9.50;99.90;;;;;;6268512;22;20459;-79
2021/10/12 17:17:22;;;;;;;0.10;0.10;;;9.40;99.90;;;;;;6267684;22;20012;-79
2021/10/12 17:19:49;;;;;;;0.00;0.00;;;9.40;99.90;;;;;;6292792;22;20050;-79
2021/10/12 17:22:17;;;;;;;0.00;0.00;;;9.40;99.90;;;;;;6293288;22;20055;-79
2021/10/12 17:24:48;;;;;;;0.00;0.00;;;9.40;99.90;;;;;;6293165;22;20094;-79
2021/10/12 17:27:18;;;;;;;0.10;0.10;;;9.40;99.90;;;;;;6268990;22;20066;-79
2021/10/12 17:29:45;;;;;;;0.00;0.00;;;9.40;99.90;;;;;;6292762;22;20094;-79
2021/10/12 17:32:11;;;;;;;0.00;0.00;;;9.50;99.90;;;;;;6267957;22;20051;-79
2021/10/12 17:34:38;;;;;;;0.00;0.00;;;9.50;99.90;;;;;;6267436;22;20091;-80
2021/10/12 17:37:05;;;;;;;0.00;0.00;;;9.60;99.90;;;;;;6293579;22;20090;-80
2021/10/12 17:39:35;;;;;;;0.10;0.10;;;9.60;99.90;;;;;;6268210;22;20012;-79
2021/10/12 17:42:02;;;;;;;0.03;0.03;;;9.80;99.90;;;;;;6293533;22;20466;-80
2021/10/12 17:44:28;;;;;;;0.00;0.00;;;9.60;99.90;;;;;;6268237;22;20020;-80
2021/10/12 17:46:57;;;;;;;0.00;0.00;;;9.60;99.90;;;;;;6267759;22;20339;-80
2021/10/12 17:53:37;;;;;;;0.00;0.00;;;9.60;99.90;;;;;;6260282;23;20015;-80
2021/10/12 17:56:05;;;;;;;0.00;0.00;;;9.50;99.90;;;;;;6236434;23;20012;-79
2021/10/12 17:58:32;;;;;;;0.00;0.00;;;9.60;99.90;;;;;;6236305;23;20461;-79
2021/10/12 18:00:59;;;;;;;0.10;0.10;;;9.60;99.90;;;;;;6211468;23;20070;-79
2021/10/12 18:03:27;;;;;;;0.00;0.00;;;9.60;99.90;;;;;;6186854;23;20107;-80
2021/10/12 18:06:00;;;;;;;0.00;0.00;;;9.60;99.90;;;;;;6236267;23;20008;-79
2021/10/12 18:08:28;;;;;;;0.00;0.00;;;9.60;99.90;;;;;;6236225;23;20016;-80
2021/10/12 18:11:01;;;;;;;0.00;0.00;;;9.60;99.90;;;;;;6236035;23;20008;-79
2021/10/12 18:13:29;;;;;;;0.00;0.00;;;9.60;99.90;;;;;;6271173;22;20030;-79
2021/10/12 18:15:56;;;;;;;0.00;0.00;;;9.60;99.90;;;;;;6293057;22;20098;-79
2021/10/12 18:18:23;;;;;;;0.00;0.00;;;9.50;99.90;;;;;;6267673;22;20043;-79
2021/10/12 18:20:50;;;;;;;0.00;0.00;;;9.50;99.90;;;;;;6292818;22;20682;-79
2021/10/12 18:23:17;;;;;;;0.00;0.00;;;9.40;99.90;;;;;;6267766;22;20012;-79
2021/10/12 18:25:45;;;;;;;0.00;0.00;;;9.40;99.90;;;;;;6267493;22;20081;-79
2021/10/12 18:28:12;;;;;;;0.00;0.00;;;9.40;99.90;;;;;;6267317;22;20019;-79
2021/10/12 18:30:40;;;;;;;0.00;0.00;;;9.40;99.90;;;;;;6267557;22;20007;-79
2021/10/12 18:33:06;;;;;;;0.00;0.00;;;9.60;99.90;;;;;;6292863;22;20014;-79
2021/10/12 18:35:34;;;;;;;1.35;0.30;;;9.40;99.90;;;;;;6267038;22;20086;-79
2021/10/12 18:38:01;;;;;;;0.10;0.10;;;9.40;99.90;;;;;;6318409;22;20328;-79
2021/10/12 18:40:28;;;;;;;0.00;0.00;;;9.50;99.90;;;;;;6267608;22;20011;-79
2021/10/12 18:42:54;;;;;;;0.05;0.05;;;9.50;99.90;;;;;;6267466;22;20018;-79
2021/10/12 18:45:21;;;;;;;0.00;0.00;;;9.50;99.90;;;;;;6267363;22;20015;-79
2021/10/12 18:47:48;;;;;;;0.00;0.00;;;9.40;99.90;;;;;;6292346;22;20016;-79
2021/10/12 18:50:15;;;;;;;0.10;0.10;;;9.40;99.90;;;;;;6292601;22;20339;-79
2021/10/12 18:52:42;;;;;;;0.10;0.10;;;9.40;99.90;;;;;;6317765;22;20086;-79
2021/10/12 18:55:11;;;;;;;0.00;0.00;;;9.30;99.90;;;;;;6267642;22;20008;-79
2021/10/12 18:57:41;;;;;;;0.10;0.10;;;9.30;99.90;;;;;;6267679;22;20008;-80
2021/10/12 19:00:13;;;;;;;0.00;0.00;;;9.30;99.90;;;;;;6292210;22;20007;-79
2021/10/12 19:02:42;;;;;;;0.10;0.10;;;9.40;99.90;;;;;;6292478;22;20015;-79
2021/10/12 19:05:09;;;;;;;0.03;0.03;;;9.40;99.90;;;;;;6293102;22;20448;-80
2021/10/12 19:07:36;;;;;;;0.00;0.00;;;9.40;99.90;;;;;;6291502;22;20012;-80
2021/10/12 19:10:07;;;;;;;0.00;0.00;;;9.40;99.90;;;;;;6291817;22;20012;-79
2021/10/12 19:12:34;;;;;;;0.00;0.00;;;9.40;99.90;;;;;;6266462;22;20015;-80
2021/10/12 19:15:01;;;;;;;0.10;0.10;;;9.30;99.90;;;;;;6267028;22;20020;-79
2021/10/12 19:17:27;;;;;;;0.00;0.00;;;9.30;99.90;;;;;;6267184;22;20042;-79
2021/10/12 19:19:54;;;;;;;0.10;0.10;;;9.30;99.90;;;;;;6292079;22;20452;-79
2021/10/12 19:22:21;;;;;;;0.00;0.00;;;9.30;99.90;;;;;;6267435;22;20026;-79
2021/10/12 19:24:49;;;;;;;1.20;0.17;;;9.10;99.90;;;;;;6292225;22;20012;-79
2021/10/12 19:27:19;;;;;;;0.00;0.00;;;9.20;99.90;;;;;;6317139;22;20439;-80
2021/10/12 19:29:47;;;;;;;0.45;0.35;;;9.10;99.90;;;;;;6266284;22;20022;-80
2021/10/12 19:32:15;;;;;;;0.10;0.10;;;9.10;99.90;;;;;;6265942;22;20008;-79
2021/10/12 19:34:43;;;;;;;0.00;0.00;;;9.00;99.90;;;;;;6292429;22;20004;-80
2021/10/12 19:37:10;;;;;;;0.10;0.10;;;9.00;99.90;;;;;;6317604;22;20003;-80
2021/10/12 19:39:38;;;;;;;0.10;0.10;;;9.00;99.90;;;;;;6266509;22;20077;-81
2021/10/12 19:42:06;;;;;;;0.25;0.15;;;9.00;99.90;;;;;;6292155;22;20023;-78
2021/10/12 19:44:33;;;;;;;0.00;0.00;;;9.00;99.90;;;;;;6267163;22;20011;-79
2021/10/12 19:47:00;;;;;;;0.00;0.00;;;9.00;99.90;;;;;;6266531;22;20020;-78
2021/10/12 19:49:27;;;;;;;0.10;0.10;;;8.90;99.90;;;;;;6292174;22;20479;-78
2021/10/12 19:51:53;;;;;;;0.10;0.10;;;8.90;99.90;;;;;;6266777;22;20046;-80
2021/10/12 19:54:21;;;;;;;0.00;0.00;;;8.80;99.90;;;;;;6292161;22;20015;-81
2021/10/12 19:56:48;;;;;;;0.10;0.10;;;8.80;99.90;;;;;;6292106;22;20089;-81
2021/10/12 19:59:16;;;;;;;0.05;0.05;;;8.70;99.90;;;;;;6265999;22;20433;-81
2021/10/12 20:04:28;;;;;;;0.10;0.10;;;8.60;99.90;;;;;;6316943;22;20348;-81
2021/10/12 20:06:55;;;;;;;0.00;0.00;;;8.60;99.90;;;;;;6266308;22;20012;-81
2021/10/12 20:09:21;;;;;;;0.10;0.10;;;8.70;99.90;;;;;;6291487;22;20090;-82
2021/10/12 20:11:48;;;;;;;0.00;0.00;;;8.70;99.90;;;;;;6265347;22;20007;-82
2021/10/12 20:14:15;;;;;;;0.03;0.03;;;8.70;99.90;;;;;;6265578;22;20019;-81
2021/10/12 20:16:42;;;;;;;0.10;0.10;;;8.80;99.90;;;;;;6266048;22;20141;-81
2021/10/12 20:21:54;;;;;;;0.00;0.00;;;8.80;99.90;;;;;;6295344;22;20016;-81
2021/10/12 20:24:20;;;;;;;0.05;0.05;;;8.80;99.90;;;;;;6266187;22;20149;-82
2021/10/12 20:26:47;;;;;;;0.00;0.00;;;8.80;99.90;;;;;;6265985;22;20138;-82
2021/10/12 20:29:14;;;;;;;0.03;0.03;;;8.80;99.90;;;;;;6266378;22;20020;-82
2021/10/12 20:31:40;;;;;;;0.10;0.10;;;8.80;99.90;;;;;;6266324;22;20071;-81
2021/10/12 20:34:07;;;;;;;0.10;0.10;;;8.80;99.90;;;;;;6266313;22;20339;-81
2021/10/12 20:36:34;;;;;;;0.03;0.03;;;8.80;99.90;;;;;;6266358;22;20016;-81
2021/10/12 20:39:03;;;;;;;0.10;0.10;;;8.80;99.90;;;;;;6291607;22;20374;-80
2021/10/12 20:41:29;;;;;;;0.10;0.10;;;8.80;99.90;;;;;;6291969;22;20023;-80
2021/10/12 20:43:56;;;;;;;0.43;0.22;;;8.70;99.90;;;;;;6265917;22;20351;-80
2021/10/12 20:46:23;;;;;;;0.00;0.00;;;8.70;99.90;;;;;;6291307;22;20015;-80
2021/10/12 20:48:50;;;;;;;0.10;0.10;;;8.60;99.90;;;;;;6266158;22;20019;-80
2021/10/12 20:51:16;;;;;;;0.10;0.10;;;8.60;99.90;;;;;;6291462;22;20019;-80
2021/10/12 20:53:43;;;;;;;0.10;0.10;;;8.60;99.90;;;;;;6266509;22;20012;-80
2021/10/12 20:56:10;;;;;;;0.00;0.00;;;8.50;99.90;;;;;;6265659;22;20008;-80
2021/10/12 20:58:37;;;;;;;0.10;0.10;;;8.50;99.90;;;;;;6266396;22;20091;-80
2021/10/12 21:01:03;;;;;;;0.03;0.03;;;8.60;99.90;;;;;;6265617;22;20015;-80
2021/10/12 21:03:30;;;;;;;0.70;0.20;;;8.60;99.90;;;;;;6291884;22;20019;-80
2021/10/12 21:05:57;;;;;;;0.10;0.10;;;8.60;99.90;;;;;;6291152;22;20016;-80
2021/10/12 21:08:24;;;;;;;0.10;0.10;;;8.60;99.90;;;;;;6266287;22;20018;-80
2021/10/12 21:10:51;;;;;;;0.00;0.00;;;8.60;99.90;;;;;;6265853;22;20073;-80
2021/10/12 21:13:17;;;;;;;0.10;0.10;;;8.60;99.90;;;;;;6265649;22;20018;-79
2021/10/12 21:15:44;;;;;;;0.03;0.03;;;8.60;99.90;;;;;;6266076;22;20082;-80
2021/10/12 21:18:11;;;;;;;0.10;0.10;;;8.60;99.90;;;;;;6266191;22;20374;-80
2021/10/12 21:20:39;;;;;;;0.00;0.00;;;8.70;99.90;;;;;;6266201;22;20091;-80
2021/10/12 21:23:08;;;;;;;0.00;0.00;;;8.70;99.90;;;;;;6265944;22;20046;-80
2021/10/12 21:25:35;;;;;;;0.00;0.00;;;8.70;99.90;;;;;;6291345;22;20621;-80
2021/10/12 21:28:02;;;;;;;0.10;0.10;;;8.80;99.90;;;;;;6266037;22;20046;-80
2021/10/12 21:30:29;;;;;;;0.00;0.00;;;8.80;99.90;;;;;;6266247;22;20015;-79
2021/10/12 21:32:56;;;;;;;0.10;0.10;;;8.80;99.90;;;;;;6267760;22;20116;-80
2021/10/12 21:35:23;;;;;;;0.00;0.00;;;8.80;99.90;;;;;;6268510;22;20004;-80
2021/10/12 21:37:50;;;;;;;0.10;0.10;;;8.90;99.90;;;;;;6293583;22;20073;-80
2021/10/12 21:40:16;;;;;;;0.00;0.00;;;8.90;99.90;;;;;;6268173;22;20023;-80
2021/10/12 21:42:43;;;;;;;0.00;0.00;;;9.10;99.90;;;;;;6268035;22;20155;-79
2021/10/12 21:45:10;;;;;;;0.13;0.13;;;8.80;99.90;;;;;;6292990;22;20015;-79
2021/10/12 21:47:37;;;;;;;0.00;0.00;;;8.80;99.90;;;;;;6293390;22;20022;-79
2021/10/12 21:50:04;;;;;;;0.08;0.08;;;8.80;99.90;;;;;;6292972;22;20038;-80
2021/10/12 21:52:31;;;;;;;0.10;0.10;;;8.80;99.90;;;;;;6268006;22;20015;-79
2021/10/12 21:54:58;;;;;;;0.00;0.00;;;8.80;99.90;;;;;;6267800;22;20031;-80
2021/10/12 21:57:25;;;;;;;0.10;0.10;;;8.80;99.90;;;;;;6268331;22;20007;-80
2021/10/12 21:59:52;;;;;;;0.08;0.08;;;8.70;99.90;;;;;;6268013;22;20011;-80
2021/10/12 22:02:18;;;;;;;0.00;0.00;;;8.70;99.90;;;;;;6267740;22;20053;-80
2021/10/12 22:04:45;;;;;;;0.10;0.10;;;8.70;99.90;;;;;;6268321;22;20530;-80
2021/10/12 22:07:12;;;;;;;0.00;0.00;;;8.50;99.90;;;;;;6318514;22;20016;-80
2021/10/12 22:09:39;;;;;;;0.10;0.10;;;8.50;99.90;;;;;;6267991;22;20657;-80
2021/10/12 22:12:06;;;;;;;0.00;0.00;;;8.50;99.90;;;;;;6267435;22;20011;-80